Time;durP1;ratioP1;P1;durP2;ratioP2;P2;SDS_P1;SDS_P2;PMS_P1;PMS_P2;Temp;Humidity;BMP_temperature;BMP_pressure;BME280_temperature;BME280_humidity;BME280_pressure;Samples;Min_cycle;Max_cycle;Signal;HPM_P1;HPM_P2
2023/02/04 00:00:17;;;;;;;1.52;1.30;;;;;;;;;;4938944;29;20032;-68
2023/02/04 00:02:43;;;;;;;1.25;1.00;;;;;;;;;;4938990;29;20039;-68
2023/02/04 00:05:09;;;;;;;1.50;1.25;;;;;;;;;;4938772;29;20031;-69
2023/02/04 00:07:35;;;;;;;2.13;1.17;;;;;;;;;;4938143;29;20119;-69
2023/02/04 00:10:01;;;;;;;2.72;1.27;;;;;;;;;;4938485;29;20070;-69
2023/02/04 00:12:26;;;;;;;1.90;1.02;;;;;;;;;;4938604;29;20086;-69
2023/02/04 00:14:51;;;;;;;1.40;1.20;;;;;;;;;;4938053;29;20032;-68
2023/02/04 00:17:17;;;;;;;1.05;0.90;;;;;;;;;;4938479;29;20034;-68
2023/02/04 00:19:42;;;;;;;1.00;0.90;;;;;;;;;;4921402;29;20035;-68
2023/02/04 00:22:07;;;;;;;1.40;0.90;;;;;;;;;;4938274;29;20074;-68
2023/02/04 00:24:34;;;;;;;1.05;0.95;;;;;;;;;;4937300;29;20036;-69
2023/02/04 00:26:59;;;;;;;1.05;0.95;;;;;;;;;;4938174;29;20492;-69
2023/02/04 00:29:24;;;;;;;1.25;0.82;;;;;;;;;;4921015;29;20072;-70
2023/02/04 00:31:51;;;;;;;2.03;0.90;;;;;;;;;;4938126;29;20036;-70
2023/02/04 00:34:20;;;;;;;0.88;0.85;;;;;;;;;;4921213;29;20055;-70
2023/02/04 00:36:45;;;;;;;0.90;0.90;;;;;;;;;;4921380;29;20024;-70
2023/02/04 00:39:11;;;;;;;0.82;0.82;;;;;;;;;;4938327;29;20098;-69
2023/02/04 00:41:37;;;;;;;1.15;0.73;;;;;;;;;;4938427;29;20036;-70
2023/02/04 00:44:02;;;;;;;0.80;0.80;;;;;;;;;;4920966;29;20027;-70
2023/02/04 00:46:29;;;;;;;1.13;0.90;;;;;;;;;;4921773;29;20031;-70
2023/02/04 00:48:56;;;;;;;0.90;0.88;;;;;;;;;;4920891;29;20086;-69
2023/02/04 00:51:21;;;;;;;0.73;0.73;;;;;;;;;;4905118;29;20020;-69
2023/02/04 00:53:46;;;;;;;1.17;0.80;;;;;;;;;;4937899;29;20036;-66
2023/02/04 00:56:12;;;;;;;0.70;0.70;;;;;;;;;;4932528;23;20056;-67
2023/02/04 00:58:37;;;;;;;1.23;0.77;;;;;;;;;;4899977;29;20028;-65
2023/02/04 01:01:03;;;;;;;0.77;0.77;;;;;;;;;;4898709;29;20032;-65
2023/02/04 01:03:28;;;;;;;2.33;0.80;;;;;;;;;;4898349;29;20039;-64
2023/02/04 01:05:57;;;;;;;0.98;0.90;;;;;;;;;;4924110;23;20058;-72
2023/02/04 01:08:22;;;;;;;0.85;0.80;;;;;;;;;;4899762;29;20029;-65
2023/02/04 01:10:51;;;;;;;1.00;0.85;;;;;;;;;;4883179;29;20112;-65
2023/02/04 01:13:16;;;;;;;1.05;0.90;;;;;;;;;;4899569;29;20401;-69
2023/02/04 01:15:41;;;;;;;1.10;0.77;;;;;;;;;;4882732;29;20029;-68
2023/02/04 01:18:06;;;;;;;1.45;0.70;;;;;;;;;;4867014;29;20127;-67
2023/02/04 01:20:32;;;;;;;0.93;0.70;;;;;;;;;;4899336;29;20048;-67
2023/02/04 01:22:57;;;;;;;1.13;0.80;;;;;;;;;;4899701;29;20032;-67
2023/02/04 01:25:22;;;;;;;1.25;0.70;;;;;;;;;;4899456;29;20497;-67
2023/02/04 01:27:48;;;;;;;0.82;0.73;;;;;;;;;;4882877;29;20035;-67
2023/02/04 01:30:14;;;;;;;1.10;1.00;;;;;;;;;;4882436;29;20434;-66
2023/02/04 01:32:39;;;;;;;0.80;0.70;;;;;;;;;;4882759;29;20037;-67
2023/02/04 01:35:07;;;;;;;1.13;0.65;;;;;;;;;;4882419;29;20462;-67
2023/02/04 01:37:32;;;;;;;1.00;0.90;;;;;;;;;;4882825;29;20029;-68
2023/02/04 01:39:58;;;;;;;0.70;0.60;;;;;;;;;;4882733;29;20426;-68
2023/02/04 01:42:23;;;;;;;1.10;1.00;;;;;;;;;;4882465;29;20450;-68
2023/02/04 01:44:49;;;;;;;1.10;1.00;;;;;;;;;;4899294;29;20067;-68
2023/02/04 01:47:14;;;;;;;1.52;1.15;;;;;;;;;;4899036;29;20521;-68
2023/02/04 01:49:40;;;;;;;0.90;0.70;;;;;;;;;;4898951;29;20125;-68
2023/02/04 01:52:05;;;;;;;0.95;0.60;;;;;;;;;;4898879;29;20071;-68
2023/02/04 01:54:31;;;;;;;1.05;0.57;;;;;;;;;;4881947;29;20489;-68
2023/02/04 01:56:56;;;;;;;0.38;0.38;;;;;;;;;;4899075;29;20036;-68
2023/02/04 01:59:22;;;;;;;0.50;0.50;;;;;;;;;;4882443;29;20024;-68
2023/02/04 02:01:49;;;;;;;0.75;0.65;;;;;;;;;;4898798;29;20602;-67
2023/02/04 02:04:21;;;;;;;0.50;0.50;;;;;;;;;;4867002;29;20032;-68
2023/02/04 02:06:56;;;;;;;0.50;0.50;;;;;;;;;;4888039;29;20542;-68
2023/02/04 02:09:21;;;;;;;0.57;0.50;;;;;;;;;;4882281;29;20135;-67
2023/02/04 02:11:47;;;;;;;0.68;0.50;;;;;;;;;;4882141;29;20128;-66
2023/02/04 02:14:12;;;;;;;0.57;0.57;;;;;;;;;;4896875;29;20064;-66
2023/02/04 02:16:38;;;;;;;0.50;0.50;;;;;;;;;;4897626;29;20025;-67
2023/02/04 02:19:05;;;;;;;1.08;0.77;;;;;;;;;;4898578;29;20037;-67
2023/02/04 02:21:44;;;;;;;1.05;0.60;;;;;;;;;;4897185;29;20396;-66
2023/02/04 02:24:28;;;;;;;0.50;0.50;;;;;;;;;;4894339;29;20096;-66
2023/02/04 02:26:54;;;;;;;0.70;0.70;;;;;;;;;;4897289;29;20032;-64
2023/02/04 02:29:20;;;;;;;0.75;0.75;;;;;;;;;;4898467;29;20043;-63
2023/02/04 02:31:45;;;;;;;0.70;0.70;;;;;;;;;;4897361;29;20123;-62
2023/02/04 02:34:11;;;;;;;0.85;0.55;;;;;;;;;;4898764;29;20021;-63
2023/02/04 02:36:36;;;;;;;0.85;0.70;;;;;;;;;;4898802;29;20047;-63
2023/02/04 02:39:02;;;;;;;0.52;0.52;;;;;;;;;;4897605;29;20027;-63
2023/02/04 02:41:27;;;;;;;0.75;0.70;;;;;;;;;;4898500;29;20374;-65
2023/02/04 02:43:52;;;;;;;1.35;0.88;;;;;;;;;;4898930;29;20033;-65
2023/02/04 02:46:18;;;;;;;0.70;0.70;;;;;;;;;;4897500;29;20438;-65
2023/02/04 02:48:43;;;;;;;0.68;0.63;;;;;;;;;;4897177;29;20163;-64
2023/02/04 02:51:10;;;;;;;0.70;0.68;;;;;;;;;;4897275;29;20055;-64
2023/02/04 02:53:35;;;;;;;0.80;0.65;;;;;;;;;;4897597;29;20033;-64
2023/02/04 02:56:03;;;;;;;0.75;0.68;;;;;;;;;;4897500;29;20393;-64
2023/02/04 02:58:31;;;;;;;0.80;0.80;;;;;;;;;;4897427;29;20473;-64
2023/02/04 03:00:58;;;;;;;1.27;1.00;;;;;;;;;;4881505;29;20091;-64
2023/02/04 03:03:30;;;;;;;1.40;1.20;;;;;;;;;;4897351;29;20028;-64
2023/02/04 03:06:00;;;;;;;1.30;1.20;;;;;;;;;;4896740;29;20040;-64
2023/02/04 03:08:26;;;;;;;0.80;0.80;;;;;;;;;;4898132;29;20032;-64
2023/02/04 03:10:51;;;;;;;0.55;0.55;;;;;;;;;;4898090;29;20385;-64
2023/02/04 03:13:17;;;;;;;0.50;0.50;;;;;;;;;;4881304;29;20084;-64
2023/02/04 03:15:43;;;;;;;0.68;0.68;;;;;;;;;;4881335;29;20029;-64
2023/02/04 03:18:09;;;;;;;0.50;0.50;;;;;;;;;;4898157;29;20410;-64
2023/02/04 03:20:35;;;;;;;0.60;0.60;;;;;;;;;;4881283;29;20067;-65
2023/02/04 03:23:00;;;;;;;0.80;0.80;;;;;;;;;;4881221;29;20434;-64
2023/02/04 03:25:27;;;;;;;0.50;0.50;;;;;;;;;;4881621;29;20025;-64
2023/02/04 03:28:02;;;;;;;0.60;0.60;;;;;;;;;;4888817;23;20408;-64
2023/02/04 03:30:35;;;;;;;0.60;0.60;;;;;;;;;;4840537;29;20065;-64
2023/02/04 03:33:00;;;;;;;0.65;0.65;;;;;;;;;;4842418;29;20065;-64
2023/02/04 03:35:26;;;;;;;0.60;0.60;;;;;;;;;;4842374;29;20046;-64
2023/02/04 03:37:51;;;;;;;0.70;0.70;;;;;;;;;;4842692;29;20034;-66
2023/02/04 03:40:17;;;;;;;0.50;0.40;;;;;;;;;;4902250;23;20052;-65
2023/02/04 03:42:42;;;;;;;2.60;0.40;;;;;;;;;;4901991;29;20039;-66
2023/02/04 03:45:08;;;;;;;0.80;0.80;;;;;;;;;;4920418;29;20035;-66
2023/02/04 03:47:33;;;;;;;0.80;0.80;;;;;;;;;;4920491;29;20059;-67
2023/02/04 03:49:58;;;;;;;1.00;0.90;;;;;;;;;;4920271;29;20040;-67
2023/02/04 03:52:24;;;;;;;1.52;1.40;;;;;;;;;;4919306;29;20032;-67
2023/02/04 03:54:49;;;;;;;1.10;1.10;;;;;;;;;;4903175;29;20532;-67
2023/02/04 03:57:15;;;;;;;1.52;1.42;;;;;;;;;;4903023;29;20032;-70
2023/02/04 03:59:40;;;;;;;1.50;1.40;;;;;;;;;;4903476;29;20012;-70
2023/02/04 04:02:05;;;;;;;1.85;1.63;;;;;;;;;;4919981;29;20068;-66
2023/02/04 04:04:31;;;;;;;2.38;2.20;;;;;;;;;;4903136;29;20131;-67
2023/02/04 04:06:56;;;;;;;2.63;2.42;;;;;;;;;;4920261;29;20081;-67
2023/02/04 04:09:21;;;;;;;2.22;2.13;;;;;;;;;;4902387;29;20036;-67
2023/02/04 04:11:47;;;;;;;4.93;3.17;;;;;;;;;;4918741;29;20111;-69
2023/02/04 04:14:13;;;;;;;2.38;2.17;;;;;;;;;;4919353;29;20473;-69
2023/02/04 04:16:38;;;;;;;2.95;2.75;;;;;;;;;;4886393;29;20136;-69
2023/02/04 04:19:04;;;;;;;2.20;2.10;;;;;;;;;;4918779;29;20099;-69
2023/02/04 04:21:29;;;;;;;3.30;2.70;;;;;;;;;;4902224;29;20052;-69
2023/02/04 04:23:55;;;;;;;3.33;2.80;;;;;;;;;;4902681;29;20024;-69
2023/02/04 04:26:20;;;;;;;2.97;2.70;;;;;;;;;;4902413;29;20123;-68
2023/02/04 04:28:47;;;;;;;3.08;2.70;;;;;;;;;;4919728;29;20034;-69
2023/02/04 04:31:13;;;;;;;3.00;2.80;;;;;;;;;;4919234;29;20038;-69
2023/02/04 04:33:38;;;;;;;2.10;2.00;;;;;;;;;;4918992;29;20036;-69
2023/02/04 04:36:04;;;;;;;2.65;2.45;;;;;;;;;;4919250;29;20021;-69
2023/02/04 04:38:29;;;;;;;2.42;2.22;;;;;;;;;;4919342;29;20032;-69
2023/02/04 04:40:55;;;;;;;2.90;2.80;;;;;;;;;;4918186;29;20055;-69
2023/02/04 04:43:20;;;;;;;2.63;2.47;;;;;;;;;;4918479;29;20079;-69
2023/02/04 04:45:45;;;;;;;2.70;2.50;;;;;;;;;;4918540;29;20039;-69
2023/02/04 04:48:11;;;;;;;2.72;2.53;;;;;;;;;;4901683;29;20103;-69
2023/02/04 04:50:36;;;;;;;2.35;2.25;;;;;;;;;;4902011;29;20111;-69
2023/02/04 04:53:01;;;;;;;2.08;1.98;;;;;;;;;;4901364;29;20040;-70
2023/02/04 04:55:27;;;;;;;2.70;2.50;;;;;;;;;;4918403;29;20027;-69
2023/02/04 04:57:52;;;;;;;2.40;2.13;;;;;;;;;;4902331;29;20088;-68
2023/02/04 05:00:19;;;;;;;1.33;1.23;;;;;;;;;;4918430;29;20237;-68
2023/02/04 05:02:44;;;;;;;2.45;2.25;;;;;;;;;;4918821;29;20060;-68
2023/02/04 05:05:10;;;;;;;2.60;2.40;;;;;;;;;;4918279;29;20036;-68
2023/02/04 05:07:35;;;;;;;1.65;1.42;;;;;;;;;;4917741;29;20108;-68
2023/02/04 05:10:01;;;;;;;1.70;1.55;;;;;;;;;;4917026;29;20036;-68
2023/02/04 05:12:26;;;;;;;2.03;1.92;;;;;;;;;;4918284;29;20060;-69
2023/02/04 05:14:51;;;;;;;1.52;1.50;;;;;;;;;;4917713;29;20500;-68
2023/02/04 05:17:18;;;;;;;1.27;1.23;;;;;;;;;;4918027;29;20066;-68
2023/02/04 05:19:44;;;;;;;1.60;1.50;;;;;;;;;;4901406;29;20122;-68
2023/02/04 05:22:09;;;;;;;2.38;2.10;;;;;;;;;;4918188;29;20032;-68
2023/02/04 05:24:35;;;;;;;2.17;1.80;;;;;;;;;;4900967;29;20397;-68
2023/02/04 05:27:00;;;;;;;1.92;1.77;;;;;;;;;;4918281;29;20032;-65
2023/02/04 05:29:25;;;;;;;2.10;2.00;;;;;;;;;;4918691;29;20061;-66
2023/02/04 05:31:50;;;;;;;2.10;2.00;;;;;;;;;;4885263;29;20032;-69
2023/02/04 05:34:16;;;;;;;2.70;2.50;;;;;;;;;;4918131;29;20508;-69
2023/02/04 05:36:41;;;;;;;2.42;2.33;;;;;;;;;;4918478;29;20028;-65
2023/02/04 05:39:12;;;;;;;2.70;2.60;;;;;;;;;;4918119;29;20084;-67
2023/02/04 05:41:38;;;;;;;2.88;2.78;;;;;;;;;;4917886;29;20044;-67
2023/02/04 05:44:04;;;;;;;4.78;4.47;;;;;;;;;;4901458;29;20070;-68
2023/02/04 05:46:29;;;;;;;2.22;2.13;;;;;;;;;;4918242;29;20095;-69
2023/02/04 05:48:54;;;;;;;4.85;4.50;;;;;;;;;;4918255;29;20028;-69
2023/02/04 05:51:20;;;;;;;2.20;2.10;;;;;;;;;;4917998;29;20042;-69
2023/02/04 05:53:45;;;;;;;2.33;1.60;;;;;;;;;;4917891;29;20083;-67
2023/02/04 05:56:11;;;;;;;2.65;2.55;;;;;;;;;;4901348;29;20040;-69
2023/02/04 05:58:36;;;;;;;2.67;2.47;;;;;;;;;;4918137;29;20051;-71
2023/02/04 06:01:02;;;;;;;2.78;2.67;;;;;;;;;;4901109;29;20098;-65
2023/02/04 06:03:29;;;;;;;4.38;4.07;;;;;;;;;;4917790;29;20027;-68
2023/02/04 06:05:54;;;;;;;2.40;2.30;;;;;;;;;;4916999;29;20031;-65
2023/02/04 06:08:21;;;;;;;3.28;3.08;;;;;;;;;;4900575;29;20361;-65
2023/02/04 06:10:46;;;;;;;2.97;2.78;;;;;;;;;;4900572;29;20532;-65
2023/02/04 06:16:44;;;;;;;8.45;7.72;;;;;;;;;;4876435;29;20041;-70
2023/02/04 06:19:10;;;;;;;6.22;5.78;;;;;;;;;;4879565;29;20029;-70
2023/02/04 06:21:35;;;;;;;11.20;10.15;;;;;;;;;;4879242;29;20029;-70
2023/02/04 06:24:01;;;;;;;8.70;7.88;;;;;;;;;;4863005;29;20498;-70
2023/02/04 06:26:27;;;;;;;2.72;2.53;;;;;;;;;;4879472;29;20529;-69
2023/02/04 06:28:54;;;;;;;1.95;1.75;;;;;;;;;;4879431;29;20041;-64
2023/02/04 06:31:19;;;;;;;2.67;2.47;;;;;;;;;;4879142;29;20033;-64
2023/02/04 06:33:45;;;;;;;3.10;2.50;;;;;;;;;;4879604;29;20080;-65
2023/02/04 06:36:10;;;;;;;2.95;2.78;;;;;;;;;;4879524;29;20422;-64
2023/02/04 06:38:35;;;;;;;3.28;3.08;;;;;;;;;;4879303;29;20528;-65
2023/02/04 06:41:01;;;;;;;12.25;7.25;;;;;;;;;;4846908;29;20033;-69
2023/02/04 06:43:26;;;;;;;6.53;5.38;;;;;;;;;;4863231;29;20029;-70
2023/02/04 06:45:52;;;;;;;7.75;6.03;;;;;;;;;;4879207;29;20037;-67
2023/02/04 06:48:17;;;;;;;3.85;3.53;;;;;;;;;;4879490;29;20025;-67
2023/02/04 06:50:42;;;;;;;8.55;7.63;;;;;;;;;;4877937;29;20447;-67
2023/02/04 06:53:08;;;;;;;5.18;4.63;;;;;;;;;;4846281;29;20113;-68
2023/02/04 06:55:33;;;;;;;2.67;2.47;;;;;;;;;;4861920;29;20526;-67
2023/02/04 06:57:59;;;;;;;3.13;2.92;;;;;;;;;;4879084;29;20025;-68
2023/02/04 07:00:24;;;;;;;10.95;9.10;;;;;;;;;;4879159;29;20068;-67
2023/02/04 07:02:49;;;;;;;8.05;5.63;;;;;;;;;;4879296;29;20033;-67
2023/02/04 07:05:16;;;;;;;8.98;7.18;;;;;;;;;;4862488;29;20085;-67
2023/02/04 07:07:41;;;;;;;11.85;8.07;;;;;;;;;;4862741;29;20041;-67
2023/02/04 07:10:07;;;;;;;4.53;4.10;;;;;;;;;;4879080;29;20036;-67
2023/02/04 07:12:33;;;;;;;5.00;4.50;;;;;;;;;;4877802;29;20045;-67
2023/02/04 07:14:59;;;;;;;11.15;7.70;;;;;;;;;;4870434;29;20101;-67
2023/02/04 07:17:24;;;;;;;13.68;10.73;;;;;;;;;;4897803;29;20033;-68
2023/02/04 07:19:51;;;;;;;8.48;7.03;;;;;;;;;;4900605;29;20381;-68
2023/02/04 07:22:17;;;;;;;33.40;15.95;;;;;;;;;;4898545;29;20049;-68
2023/02/04 07:24:42;;;;;;;18.27;10.70;;;;;;;;;;4898535;29;20044;-68
2023/02/04 07:27:07;;;;;;;7.95;6.03;;;;;;;;;;4899623;29;20041;-67
2023/02/04 07:29:33;;;;;;;12.85;9.40;;;;;;;;;;4900077;29;20095;-67
2023/02/04 07:31:58;;;;;;;4.53;2.45;;;;;;;;;;4899338;29;20044;-67
2023/02/04 07:34:23;;;;;;;5.55;4.97;;;;;;;;;;4898495;29;20071;-67
2023/02/04 07:36:49;;;;;;;884.88;487.92;;;;;;;;;;4899563;29;20092;-67
2023/02/04 07:39:14;;;;;;;299.08;169.60;;;;;;;;;;4898010;29;20512;-67
2023/02/04 07:41:40;;;;;;;274.02;131.35;;;;;;;;;;4881705;29;20059;-67
2023/02/04 07:44:05;;;;;;;672.22;364.85;;;;;;;;;;4892882;29;20021;-67
2023/02/04 07:46:30;;;;;;;871.03;387.63;;;;;;;;;;4897285;29;20046;-67
2023/02/04 07:48:56;;;;;;;872.28;453.08;;;;;;;;;;4896313;29;20084;-68
2023/02/04 07:51:21;;;;;;;1437.20;646.70;;;;;;;;;;4895972;29;20059;-68
2023/02/04 07:53:46;;;;;;;1506.60;695.83;;;;;;;;;;4878750;29;20033;-67
2023/02/04 07:56:12;;;;;;;1504.88;642.72;;;;;;;;;;4897558;29;20033;-68
2023/02/04 07:58:37;;;;;;;1999.90;874.78;;;;;;;;;;4897177;29;20060;-68
2023/02/04 08:01:03;;;;;;;41.45;25.23;;;;;;;;;;4880438;29;20100;-68
2023/02/04 08:03:28;;;;;;;32.95;17.35;;;;;;;;;;4896789;29;20044;-68
2023/02/04 08:05:54;;;;;;;945.78;434.88;;;;;;;;;;4880156;29;20036;-68
2023/02/04 08:08:20;;;;;;;70.85;33.17;;;;;;;;;;4895954;29;20032;-69
2023/02/04 08:10:45;;;;;;;390.55;193.48;;;;;;;;;;4880805;29;20504;-68
2023/02/04 08:13:10;;;;;;;371.20;197.35;;;;;;;;;;4897165;29;20119;-68
2023/02/04 08:15:36;;;;;;;685.88;262.15;;;;;;;;;;4896514;29;20131;-68
2023/02/04 08:18:01;;;;;;;123.72;58.60;;;;;;;;;;4897073;29;20430;-68
2023/02/04 08:20:27;;;;;;;419.80;231.15;;;;;;;;;;4898749;29;20040;-69
2023/02/04 08:22:53;;;;;;;303.13;194.38;;;;;;;;;;4915578;29;20072;-69
2023/02/04 08:25:18;;;;;;;154.68;82.60;;;;;;;;;;4917341;29;20028;-67
2023/02/04 08:27:46;;;;;;;256.27;164.98;;;;;;;;;;4915657;29;20535;-67
2023/02/04 08:30:12;;;;;;;190.05;112.50;;;;;;;;;;4899002;29;20040;-68
2023/02/04 08:32:38;;;;;;;68.13;43.47;;;;;;;;;;4916035;29;20039;-67
2023/02/04 08:35:03;;;;;;;80.97;48.80;;;;;;;;;;4915999;29;20124;-67
2023/02/04 08:37:29;;;;;;;115.60;75.95;;;;;;;;;;4914905;29;20028;-68
2023/02/04 08:39:55;;;;;;;166.40;113.63;;;;;;;;;;4899598;29;20544;-68
2023/02/04 08:42:21;;;;;;;39.13;28.30;;;;;;;;;;4900692;29;20489;-68
2023/02/04 08:44:47;;;;;;;19.95;15.60;;;;;;;;;;4917597;29;20056;-66
2023/02/04 08:47:13;;;;;;;194.50;139.65;;;;;;;;;;4917161;29;20075;-62
2023/02/04 08:49:38;;;;;;;135.25;86.53;;;;;;;;;;4916068;29;20036;-67
2023/02/04 08:52:05;;;;;;;6.10;5.25;;;;;;;;;;4916988;29;20444;-67
2023/02/04 08:54:31;;;;;;;75.00;57.75;;;;;;;;;;4884728;29;20066;-66
2023/02/04 08:56:57;;;;;;;39.40;29.02;;;;;;;;;;4879855;29;20052;-71
2023/02/04 08:59:23;;;;;;;23.95;18.63;;;;;;;;;;4892741;29;20381;-71
2023/02/04 09:01:51;;;;;;;30.83;27.27;;;;;;;;;;4896584;29;20028;-70
2023/02/04 09:04:16;;;;;;;20.92;16.15;;;;;;;;;;4880465;29;20021;-72
2023/02/04 09:06:42;;;;;;;11.10;9.93;;;;;;;;;;4879891;29;20065;-72
2023/02/04 09:09:07;;;;;;;22.42;20.15;;;;;;;;;;4896793;29;20500;-72
2023/02/04 09:11:33;;;;;;;19.85;17.77;;;;;;;;;;4871350;29;20035;-72
2023/02/04 09:13:58;;;;;;;87.20;51.28;;;;;;;;;;4860560;29;20029;-72
2023/02/04 09:16:23;;;;;;;65.45;42.08;;;;;;;;;;4860875;29;20545;-72
2023/02/04 09:18:49;;;;;;;63.92;44.05;;;;;;;;;;4877900;29;20048;-72
2023/02/04 09:21:14;;;;;;;46.50;30.13;;;;;;;;;;4877403;29;20041;-72
2023/02/04 09:23:39;;;;;;;8.25;7.20;;;;;;;;;;4860807;29;20378;-72
2023/02/04 09:26:06;;;;;;;8.45;7.63;;;;;;;;;;4877083;29;20041;-72
2023/02/04 09:28:31;;;;;;;10.68;9.02;;;;;;;;;;4878266;29;20061;-72
2023/02/04 09:30:57;;;;;;;14.35;12.10;;;;;;;;;;4861494;29;20461;-70
2023/02/04 09:33:25;;;;;;;6.03;5.47;;;;;;;;;;4861001;29;20120;-71
2023/02/04 09:35:51;;;;;;;147.25;88.18;;;;;;;;;;4860892;29;20070;-70
2023/02/04 09:38:16;;;;;;;111.40;60.10;;;;;;;;;;4877892;29;20028;-71
2023/02/04 09:40:45;;;;;;;270.40;129.48;;;;;;;;;;4844109;29;20045;-70
2023/02/04 09:43:17;;;;;;;719.90;364.38;;;;;;;;;;4860203;29;20084;-70
2023/02/04 09:45:43;;;;;;;257.75;136.98;;;;;;;;;;4862328;29;20541;-71
2023/02/04 09:48:10;;;;;;;185.02;92.95;;;;;;;;;;4885802;29;20049;-65
2023/02/04 09:50:36;;;;;;;1514.88;605.47;;;;;;;;;;4891958;29;20033;-68
2023/02/04 09:53:04;;;;;;;614.05;246.38;;;;;;;;;;4893914;29;20051;-68
2023/02/04 09:55:32;;;;;;;1021.83;380.17;;;;;;;;;;4894874;29;20032;-67
2023/02/04 09:57:57;;;;;;;1207.05;574.55;;;;;;;;;;4895454;29;20039;-67
2023/02/04 10:00:25;;;;;;;518.03;173.93;;;;;;;;;;4895122;29;20028;-67
2023/02/04 10:02:51;;;;;;;953.33;419.38;;;;;;;;;;4880043;29;20037;-67
2023/02/04 10:05:26;;;;;;;1267.93;558.80;;;;;;;;;;4860218;29;20100;-67
2023/02/04 10:07:51;;;;;;;76.40;35.60;;;;;;;;;;4859713;29;20045;-67
2023/02/04 10:10:18;;;;;;;174.05;71.72;;;;;;;;;;4859965;29;20044;-67
2023/02/04 10:12:45;;;;;;;152.55;65.50;;;;;;;;;;4875844;29;20048;-67
2023/02/04 10:15:18;;;;;;;266.90;135.38;;;;;;;;;;4859293;29;20688;-68
2023/02/04 10:17:44;;;;;;;301.17;135.75;;;;;;;;;;4876542;29;20564;-68
2023/02/04 10:20:14;;;;;;;635.75;328.23;;;;;;;;;;4877477;29;20032;-68
2023/02/04 10:22:39;;;;;;;82.67;47.03;;;;;;;;;;4878939;29;20481;-68
2023/02/04 10:25:15;;;;;;;540.97;304.35;;;;;;;;;;4895801;29;20072;-64
2023/02/04 10:27:51;;;;;;;309.63;178.38;;;;;;;;;;4895929;29;20036;-71
2023/02/04 10:30:18;;;;;;;312.42;188.52;;;;;;;;;;4894951;29;20108;-71
2023/02/04 10:32:44;;;;;;;164.40;113.70;;;;;;;;;;4879755;29;20462;-71
2023/02/04 10:35:12;;;;;;;136.95;93.63;;;;;;;;;;4864015;29;20120;-71
2023/02/04 10:37:40;;;;;;;66.63;45.72;;;;;;;;;;4877630;29;20036;-71
2023/02/04 10:40:05;;;;;;;31.52;21.80;;;;;;;;;;4877856;29;20061;-71
2023/02/04 10:42:31;;;;;;;42.17;34.03;;;;;;;;;;4874914;29;20036;-70
2023/02/04 10:44:57;;;;;;;15.93;13.75;;;;;;;;;;4880703;29;20068;-71
2023/02/04 10:47:27;;;;;;;131.02;68.90;;;;;;;;;;4897911;29;20553;-71
2023/02/04 10:50:05;;;;;;;314.75;110.53;;;;;;;;;;4893217;29;20111;-71
2023/02/04 10:52:44;;;;;;;24.58;19.52;;;;;;;;;;4900846;29;20051;-71
2023/02/04 10:55:13;;;;;;;6.07;4.93;;;;;;;;;;4894282;29;20033;-74
2023/02/04 10:57:38;;;;;;;19.35;12.27;;;;;;;;;;4866125;29;20064;-71
2023/02/04 11:00:05;;;;;;;19.63;16.05;;;;;;;;;;4883041;29;20069;-70
2023/02/04 11:02:43;;;;;;;13.57;12.15;;;;;;;;;;4866472;29;20084;-71
2023/02/04 11:05:10;;;;;;;5.15;4.50;;;;;;;;;;4901268;29;20044;-69
2023/02/04 11:07:35;;;;;;;7.25;6.53;;;;;;;;;;4901449;29;20032;-69
2023/02/04 11:10:01;;;;;;;6.28;5.68;;;;;;;;;;4901359;29;20039;-69
2023/02/04 11:12:43;;;;;;;5.45;4.95;;;;;;;;;;4899969;29;20578;-69
2023/02/04 11:15:28;;;;;;;10.88;6.68;;;;;;;;;;4882653;29;20044;-68
2023/02/04 11:18:07;;;;;;;4.22;3.83;;;;;;;;;;4882482;29;20033;-69
2023/02/04 11:20:35;;;;;;;9.07;8.20;;;;;;;;;;4866984;29;20127;-75
2023/02/04 11:23:18;;;;;;;9.95;6.47;;;;;;;;;;4882774;29;20288;-68
2023/02/04 11:25:44;;;;;;;14.95;7.45;;;;;;;;;;4882023;29;20072;-68
2023/02/04 11:28:25;;;;;;;9.13;5.65;;;;;;;;;;4882108;29;20025;-69
2023/02/04 11:31:00;;;;;;;12.95;5.00;;;;;;;;;;4865595;29;20085;-69
2023/02/04 11:33:32;;;;;;;4.95;4.15;;;;;;;;;;4882104;29;20108;-69
2023/02/04 11:36:03;;;;;;;5.53;3.97;;;;;;;;;;4881947;29;20028;-69
2023/02/04 11:38:29;;;;;;;6.60;3.90;;;;;;;;;;4865405;29;20079;-69
2023/02/04 11:40:56;;;;;;;4.18;3.78;;;;;;;;;;4865203;29;20068;-68
2023/02/04 11:43:21;;;;;;;5.70;4.45;;;;;;;;;;4881830;29;20059;-69
2023/02/04 11:45:46;;;;;;;4.30;3.65;;;;;;;;;;4880155;29;20036;-69
2023/02/04 11:48:14;;;;;;;5.45;3.42;;;;;;;;;;4881137;29;20048;-68
2023/02/04 11:50:40;;;;;;;3.65;3.35;;;;;;;;;;4865345;29;20037;-69
2023/02/04 11:53:08;;;;;;;2.78;2.58;;;;;;;;;;4881730;29;20379;-69
2023/02/04 11:55:35;;;;;;;4.68;4.28;;;;;;;;;;4881785;29;20115;-69
2023/02/04 11:58:00;;;;;;;5.20;4.25;;;;;;;;;;4880901;29;20029;-69
2023/02/04 12:00:30;;;;;;;8.27;4.72;;;;;;;;;;4881994;29;20470;-69
2023/02/04 12:02:57;;;;;;;4.03;3.47;;;;;;;;;;4864574;29;20100;-71
2023/02/04 12:05:34;;;;;;;3.42;3.00;;;;;;;;;;4864447;29;20128;-71
2023/02/04 12:08:08;;;;;;;3.50;3.08;;;;;;;;;;4880892;29;20112;-71
2023/02/04 12:10:33;;;;;;;3.58;3.28;;;;;;;;;;4881075;29;20079;-71
2023/02/04 12:12:59;;;;;;;3.50;3.17;;;;;;;;;;4879809;29;20069;-71
2023/02/04 12:15:36;;;;;;;4.18;3.78;;;;;;;;;;4886240;29;20048;-71
2023/02/04 12:18:03;;;;;;;16.65;9.52;;;;;;;;;;4883055;29;20405;-71
2023/02/04 12:20:28;;;;;;;7.18;5.97;;;;;;;;;;4867719;29;20129;-72
2023/02/04 12:22:54;;;;;;;160.07;81.15;;;;;;;;;;4881284;29;20505;-72
2023/02/04 12:25:19;;;;;;;176.23;75.88;;;;;;;;;;4880647;29;20124;-72
2023/02/04 12:27:44;;;;;;;215.35;102.32;;;;;;;;;;4864343;29;20490;-71
2023/02/04 12:30:11;;;;;;;21.65;12.60;;;;;;;;;;4881040;29;20025;-71
2023/02/04 12:32:36;;;;;;;184.57;73.03;;;;;;;;;;4880932;29;20037;-71
2023/02/04 12:35:01;;;;;;;463.85;205.80;;;;;;;;;;4881236;29;20529;-70
2023/02/04 12:37:27;;;;;;;343.13;150.85;;;;;;;;;;4863945;29;20032;-71
2023/02/04 12:39:52;;;;;;;1458.57;645.08;;;;;;;;;;4880314;29;20036;-71
2023/02/04 12:42:17;;;;;;;159.30;73.15;;;;;;;;;;4863853;29;20089;-70
2023/02/04 12:44:43;;;;;;;464.10;176.48;;;;;;;;;;4864043;29;20493;-70
2023/02/04 12:47:08;;;;;;;754.45;347.55;;;;;;;;;;4898746;29;20041;-71
2023/02/04 12:49:34;;;;;;;1513.82;615.03;;;;;;;;;;4899845;29;20069;-70
2023/02/04 12:52:01;;;;;;;219.15;81.97;;;;;;;;;;4899873;29;20040;-70
2023/02/04 12:54:26;;;;;;;724.30;264.27;;;;;;;;;;4900155;29;20029;-70
2023/02/04 12:56:52;;;;;;;598.50;246.50;;;;;;;;;;4899437;29;20028;-70
2023/02/04 12:59:17;;;;;;;459.65;148.27;;;;;;;;;;4883393;29;20041;-71
2023/02/04 13:01:43;;;;;;;1400.75;559.42;;;;;;;;;;4882939;29;20041;-71
2023/02/04 13:04:08;;;;;;;893.00;360.60;;;;;;;;;;4864223;29;20033;-70
2023/02/04 13:06:33;;;;;;;852.80;322.65;;;;;;;;;;4864359;29;20035;-69
2023/02/04 13:09:00;;;;;;;863.35;318.33;;;;;;;;;;4880702;29;20029;-69
2023/02/04 13:11:25;;;;;;;1727.60;623.38;;;;;;;;;;4880325;29;20080;-70
2023/02/04 13:13:50;;;;;;;961.42;337.08;;;;;;;;;;4863510;29;20044;-70
2023/02/04 13:16:18;;;;;;;1572.03;543.35;;;;;;;;;;4879823;29;20052;-73
2023/02/04 13:18:43;;;;;;;322.25;113.72;;;;;;;;;;4887640;29;20047;-72
2023/02/04 13:21:08;;;;;;;115.65;35.90;;;;;;;;;;4898885;29;20470;-72
2023/02/04 13:23:36;;;;;;;1201.07;422.58;;;;;;;;;;4890035;29;20437;-70
2023/02/04 13:26:01;;;;;;;371.20;119.07;;;;;;;;;;4882172;29;20129;-68
2023/02/04 13:28:27;;;;;;;40.03;15.02;;;;;;;;;;4895890;29;20029;-73
2023/02/04 13:30:52;;;;;;;75.82;23.10;;;;;;;;;;4864078;29;20120;-72
2023/02/04 13:33:19;;;;;;;833.70;316.13;;;;;;;;;;4864328;29;20124;-73
2023/02/04 13:35:45;;;;;;;52.38;21.52;;;;;;;;;;4864090;29;20036;-68
2023/02/04 13:38:10;;;;;;;49.40;17.80;;;;;;;;;;4880055;29;20538;-68
2023/02/04 13:40:35;;;;;;;1020.17;452.35;;;;;;;;;;4881558;29;20454;-64
2023/02/04 13:43:02;;;;;;;47.95;21.00;;;;;;;;;;4882072;29;20073;-70
2023/02/04 13:45:27;;;;;;;787.00;356.92;;;;;;;;;;4883805;29;20056;-69
2023/02/04 13:47:52;;;;;;;396.75;143.63;;;;;;;;;;4880252;29;20513;-69
2023/02/04 13:50:18;;;;;;;207.95;76.35;;;;;;;;;;4863295;29;20466;-69
2023/02/04 13:52:43;;;;;;;13.55;7.22;;;;;;;;;;4880075;29;20047;-68
2023/02/04 13:55:08;;;;;;;9.65;5.55;;;;;;;;;;4894548;29;20142;-70
2023/02/04 13:57:36;;;;;;;86.07;35.58;;;;;;;;;;4899008;29;20052;-70
2023/02/04 14:00:01;;;;;;;11.68;8.35;;;;;;;;;;4897773;29;20032;-69
2023/02/04 14:02:26;;;;;;;71.25;33.60;;;;;;;;;;4898721;29;20055;-69
2023/02/04 14:04:52;;;;;;;40.30;19.63;;;;;;;;;;4898909;29;20040;-70
2023/02/04 14:07:17;;;;;;;18.05;11.48;;;;;;;;;;4898979;29;20033;-70
2023/02/04 14:09:42;;;;;;;18.90;10.85;;;;;;;;;;4881494;29;20473;-70
2023/02/04 14:12:07;;;;;;;19.48;9.10;;;;;;;;;;4898615;29;20029;-69
2023/02/04 14:14:33;;;;;;;8.52;6.32;;;;;;;;;;4897872;29;20033;-69
2023/02/04 14:16:58;;;;;;;10.10;7.47;;;;;;;;;;4896598;29;20028;-69
2023/02/04 14:19:26;;;;;;;8.48;4.82;;;;;;;;;;4897926;29;20025;-67
2023/02/04 14:21:52;;;;;;;10.85;8.25;;;;;;;;;;4897816;29;20096;-68
2023/02/04 14:24:19;;;;;;;9.07;5.93;;;;;;;;;;4897570;29;20735;-69
2023/02/04 14:26:45;;;;;;;7.55;5.90;;;;;;;;;;4897765;29;20405;-72